Time;durP1;ratioP1;P1;durP2;ratioP2;P2;SDS_P1;SDS_P2;PMS_P1;PMS_P2;Temp;Humidity;BMP_temperature;BMP_pressure;BME280_temperature;BME280_humidity;BME280_pressure;Samples;Min_cycle;Max_cycle;Signal;HPM_P1;HPM_P2
2021/11/15 03:41:49;;;;;;;0.57;0.52;;;;;;;0.65;61.75;100815.06;4887572;29;20522;-88
2021/11/15 03:44:16;;;;;;;1.10;0.63;;;;;;;0.63;62.40;100830.59;4896135;29;20088;-88
2021/11/15 03:46:44;;;;;;;2.08;0.90;;;;;;;0.70;62.98;100851.09;4889572;29;20039;-86
2021/11/15 03:49:15;;;;;;;8.55;1.52;;;;;;;0.62;61.46;100850.47;4884792;29;20415;-91
2021/11/15 03:51:43;;;;;;;6.03;0.80;;;;;;;0.65;61.25;100833.91;4899198;29;20048;-90
2021/11/15 03:54:09;;;;;;;4.63;1.05;;;;;;;0.73;61.99;100831.00;4899037;29;20536;-89
2021/11/15 03:56:36;;;;;;;1.13;0.70;;;;;;;0.80;63.34;100841.75;4915111;29;20047;-88
2021/11/15 03:59:06;;;;;;;2.67;1.02;;;;;;;0.74;63.46;100821.88;4899660;29;20538;-88
2021/11/15 04:01:35;;;;;;;11.10;1.27;;;;;;;0.93;63.33;100853.31;4899214;29;20036;-87
2021/11/15 04:04:04;;;;;;;0.98;0.57;;;;;;;0.85;63.59;100858.91;4868645;29;20450;-91
2021/11/15 04:10:23;;;;;;;3.53;1.20;;;;;;;0.69;65.09;100870.13;4917267;29;20100;-93
2021/11/15 04:20:27;;;;;;;4.38;0.90;;;;;;;0.56;68.04;100905.94;4898626;29;20051;-84
2021/11/15 04:22:53;;;;;;;6.93;1.40;;;;;;;0.28;70.68;100900.78;4914512;29;20048;-87
2021/11/15 04:25:20;;;;;;;13.82;1.80;;;;;;;0.37;72.48;100914.88;4914789;29;20078;-85
2021/11/15 04:27:46;;;;;;;5.35;1.30;;;;;;;0.27;72.14;100936.78;4915029;29;20100;-80
2021/11/15 04:30:13;;;;;;;3.22;1.45;;;;;;;0.19;73.47;100927.03;4915311;29;20040;-81
2021/11/15 04:32:42;;;;;;;9.93;1.77;;;;;;;0.24;73.82;100942.59;4915505;29;20390;-86
2021/11/15 04:35:11;;;;;;;2.72;1.33;;;;;;;0.33;72.13;100922.53;4917164;29;20056;-88
2021/11/15 04:37:38;;;;;;;2.08;1.48;;;;;;;0.38;72.53;100948.81;4919296;29;20071;-77
2021/11/15 04:40:06;;;;;;;2.35;1.27;;;;;;;0.40;72.83;100955.63;4918811;29;20056;-81
2021/11/15 04:42:33;;;;;;;5.63;1.48;;;;;;;0.25;73.49;100952.31;4918604;29;20059;-77
2021/11/15 04:45:02;;;;;;;4.22;1.38;;;;;;;0.28;73.20;100961.81;4918753;29;20176;-82
2021/11/15 04:47:29;;;;;;;5.00;1.52;;;;;;;0.26;73.24;100964.72;4918680;29;20525;-82
2021/11/15 04:49:55;;;;;;;9.30;2.93;;;;;;;0.28;72.37;100965.34;4918728;29;20048;-81
2021/11/15 04:52:21;;;;;;;197.63;107.30;;;;;;;0.42;72.46;100971.56;4901585;29;20123;-80
2021/11/15 04:54:49;;;;;;;34.50;13.57;;;;;;;0.41;70.92;100980.69;4918822;29;20071;-82
2021/11/15 04:57:18;;;;;;;3.05;1.50;;;;;;;0.38;70.34;100989.16;4918520;29;20143;-82
2021/11/15 04:59:46;;;;;;;3.47;1.50;;;;;;;0.38;70.92;100987.28;4918391;29;20044;-79
2021/11/15 05:02:12;;;;;;;3.90;1.73;;;;;;;0.43;70.06;100989.34;4918019;29;20059;-79
2021/11/15 05:04:39;;;;;;;3.33;1.75;;;;;;;0.48;69.29;101003.03;4918083;29;20131;-78
2021/11/15 05:07:05;;;;;;;2.65;1.30;;;;;;;0.49;67.96;100995.78;4918011;29;20052;-78
2021/11/15 05:09:34;;;;;;;3.08;1.48;;;;;;;0.54;66.37;100996.84;4917234;29;20043;-78
2021/11/15 05:12:01;;;;;;;;;;;;;;;0.58;66.88;101000.75;4919137;29;20059;-76
2021/11/15 05:14:28;;;;;;;5.95;1.42;;;;;;;0.57;66.03;101001.81;4918191;29;20013;-80
2021/11/15 05:16:54;;;;;;;2.88;1.48;;;;;;;0.68;65.18;101009.25;4917876;29;20103;-81
2021/11/15 05:19:20;;;;;;;5.70;1.77;;;;;;;0.72;64.92;101011.53;4918203;29;20073;-81
2021/11/15 05:21:46;;;;;;;2.67;1.33;;;;;;;0.76;64.16;101015.47;4918116;29;20300;-78
2021/11/15 05:24:13;;;;;;;5.97;1.23;;;;;;;0.78;63.37;101022.31;4918298;29;20572;-82
2021/11/15 05:26:39;;;;;;;9.00;3.15;;;;;;;0.89;64.16;101023.53;4918203;29;20052;-82
2021/11/15 05:29:06;;;;;;;8.07;2.83;;;;;;;0.97;62.07;101030.63;4918108;29;20044;-82
2021/11/15 05:31:34;;;;;;;6.30;2.95;;;;;;;1.14;62.59;101032.66;4918155;29;20050;-82
2021/11/15 05:34:04;;;;;;;3.78;1.83;;;;;;;1.06;60.83;101024.81;4917927;29;20060;-80
2021/11/15 05:36:31;;;;;;;2.55;1.20;;;;;;;1.02;59.60;101034.31;4917836;29;20068;-82
2021/11/15 05:38:59;;;;;;;3.10;1.30;;;;;;;1.02;60.21;101039.69;4917872;29;20083;-82
2021/11/15 05:41:26;;;;;;;6.72;2.63;;;;;;;1.08;60.03;101049.66;4917414;29;20087;-82
2021/11/15 05:43:52;;;;;;;4.20;1.90;;;;;;;1.09;59.19;101064.78;4917871;29;20052;-81
2021/11/15 05:46:18;;;;;;;4.05;1.73;;;;;;;1.07;60.49;101060.66;4915290;29;20179;-80
2021/11/15 05:48:45;;;;;;;4.78;2.53;;;;;;;1.09;61.99;101058.56;4917805;29;20689;-83
2021/11/15 05:51:12;;;;;;;5.35;2.35;;;;;;;1.06;59.64;101061.66;4918292;29;20453;-84
2021/11/15 05:53:40;;;;;;;7.40;1.75;;;;;;;1.16;59.45;101068.31;4918095;29;20051;-81
2021/11/15 05:56:08;;;;;;;7.90;1.90;;;;;;;1.16;60.14;101079.09;4917658;29;20430;-86
2021/11/15 05:58:35;;;;;;;6.03;2.38;;;;;;;1.11;60.35;101076.16;4919536;29;20044;-84
2021/11/15 06:01:03;;;;;;;3.17;1.57;;;;;;;1.14;57.94;101083.84;4917855;29;20070;-84
2021/11/15 06:03:29;;;;;;;11.27;1.80;;;;;;;1.11;60.02;101081.56;4918057;29;20074;-84
2021/11/15 06:05:56;;;;;;;3.83;1.90;;;;;;;1.10;59.54;101084.47;4917276;29;20047;-84
2021/11/15 06:08:22;;;;;;;13.73;2.35;;;;;;;1.11;56.51;101086.94;4917474;29;20039;-85
2021/11/15 06:10:53;;;;;;;5.32;2.05;;;;;;;1.07;58.23;101096.47;4917684;29;20052;-84
2021/11/15 06:13:20;;;;;;;4.88;3.03;;;;;;;0.98;58.40;101081.56;4917604;29;20502;-86
2021/11/15 06:15:47;;;;;;;;;;;;;;;1.18;58.19;101081.56;4918071;29;20564;-85
2021/11/15 06:18:15;;;;;;;12.70;6.10;;;;;;;1.25;58.00;101092.34;4918383;29;19982;-87
2021/11/15 06:20:43;;;;;;;4.75;2.00;;;;;;;1.30;56.82;101087.16;4918521;29;20601;-85
2021/11/15 06:23:09;;;;;;;6.05;2.30;;;;;;;1.42;56.63;101090.88;4918222;29;20414;-88
2021/11/15 06:25:36;;;;;;;22.15;8.35;;;;;;;1.47;56.98;101088.38;4918306;29;20051;-87
2021/11/15 06:28:03;;;;;;;9.05;1.88;;;;;;;1.47;56.32;101093.78;4917630;29;20059;-83
2021/11/15 06:30:29;;;;;;;13.73;2.83;;;;;;;1.47;56.13;101098.34;4917267;29;20052;-85
2021/11/15 06:32:55;;;;;;;9.02;2.35;;;;;;;1.60;56.31;101096.44;4917324;29;20131;-87
2021/11/15 06:35:21;;;;;;;8.45;2.17;;;;;;;1.64;56.71;101103.06;4917108;29;20056;-76
2021/11/15 06:37:47;;;;;;;16.80;2.35;;;;;;;1.59;56.95;101097.50;4917121;29;20513;-85
2021/11/15 06:40:16;;;;;;;9.95;2.85;;;;;;;1.38;57.50;101076.97;4916755;29;20188;-82
2021/11/15 06:42:43;;;;;;;7.13;2.63;;;;;;;1.52;59.04;101120.09;4917111;29;20056;-85
2021/11/15 06:45:09;;;;;;;9.95;2.50;;;;;;;1.54;58.54;101120.72;4916895;29;20123;-86
2021/11/15 06:47:37;;;;;;;10.93;2.65;;;;;;;1.64;58.61;101131.91;4899963;29;20088;-84
2021/11/15 06:50:07;;;;;;;7.97;2.63;;;;;;;1.62;58.56;101126.72;4916478;29;20043;-85
2021/11/15 06:52:33;;;;;;;11.60;2.80;;;;;;;1.67;58.68;101119.88;4916424;29;20047;-87
2021/11/15 06:54:59;;;;;;;7.82;2.50;;;;;;;1.57;58.05;101113.03;4916785;29;20055;-87
2021/11/15 06:57:26;;;;;;;9.45;2.50;;;;;;;1.77;58.18;101142.66;4917461;29;20092;-85
2021/11/15 06:59:56;;;;;;;8.57;2.67;;;;;;;1.81;58.17;101149.28;4917550;29;20048;-82
2021/11/15 07:02:22;;;;;;;17.75;3.60;;;;;;;1.82;58.68;101155.50;4918000;29;20047;-85
2021/11/15 07:04:49;;;;;;;9.95;2.60;;;;;;;1.85;58.41;101161.34;4917958;29;20036;-84
2021/11/15 07:07:15;;;;;;;10.05;3.17;;;;;;;1.72;58.92;101173.97;4917530;29;20107;-85
2021/11/15 07:09:45;;;;;;;7.53;2.80;;;;;;;1.63;59.71;101174.22;4916176;29;20060;-85
2021/11/15 07:12:12;;;;;;;12.45;2.95;;;;;;;1.65;59.09;101192.84;4916537;29;20044;-81
2021/11/15 07:14:39;;;;;;;11.02;3.10;;;;;;;1.86;59.70;101194.53;4915896;29;20433;-85
2021/11/15 07:17:05;;;;;;;;;;;;;;;1.74;59.28;101190.78;4924851;29;20042;-86
2021/11/15 07:19:31;;;;;;;13.55;3.15;;;;;;;1.72;59.63;101196.38;4925098;29;20021;-80
2021/11/15 07:21:58;;;;;;;11.35;2.25;;;;;;;1.80;59.02;101189.97;4923043;29;20044;-81
2021/11/15 07:24:24;;;;;;;6.38;2.80;;;;;;;1.61;60.47;101203.22;4922805;29;20044;-81
2021/11/15 07:26:50;;;;;;;9.05;2.60;;;;;;;1.72;59.74;101195.56;4928038;29;20059;-84
2021/11/15 07:29:16;;;;;;;10.35;2.75;;;;;;;1.83;59.58;101203.84;4929531;29;20044;-84
2021/11/15 07:31:44;;;;;;;11.85;2.70;;;;;;;1.74;59.33;101206.97;4915592;29;20520;-75
2021/11/15 07:34:10;;;;;;;5.72;2.72;;;;;;;1.69;59.34;101214.84;4915986;29;20048;-85
2021/11/15 07:36:37;;;;;;;4.95;2.70;;;;;;;1.59;59.24;101204.47;4915855;29;20147;-85
2021/11/15 07:39:04;;;;;;;11.10;2.70;;;;;;;1.72;59.80;101236.00;4916422;29;20051;-83
2021/11/15 07:41:31;;;;;;;7.65;3.55;;;;;;;1.75;59.85;101232.88;4915419;29;20098;-84
2021/11/15 07:43:58;;;;;;;5.60;1.63;;;;;;;1.62;58.73;101234.56;4915129;29;20080;-84
2021/11/15 07:46:24;;;;;;;3.08;1.60;;;;;;;1.41;58.95;101250.91;4915796;29;20071;-82
2021/11/15 07:48:50;;;;;;;10.73;3.33;;;;;;;1.36;59.87;101273.09;4915643;29;20087;-83
2021/11/15 07:51:16;;;;;;;15.67;2.50;;;;;;;1.39;59.05;101259.22;4915573;29;20036;-80
2021/11/15 07:53:42;;;;;;;2.90;1.60;;;;;;;1.41;57.35;101275.97;4915536;29;20052;-81
2021/11/15 07:56:10;;;;;;;3.50;2.33;;;;;;;1.25;57.40;101256.69;4915258;29;20079;-80
2021/11/15 07:58:37;;;;;;;5.10;2.13;;;;;;;1.35;58.64;101274.09;4917674;29;20142;-83
2021/11/15 08:01:04;;;;;;;2.50;1.40;;;;;;;1.36;58.50;101281.16;4933707;29;20102;-80
2021/11/15 08:03:30;;;;;;;12.25;2.97;;;;;;;1.47;58.93;101281.59;4915373;29;20048;-78
2021/11/15 08:05:57;;;;;;;5.00;2.37;;;;;;;1.56;59.04;101275.81;4915500;29;20132;-81
2021/11/15 08:08:23;;;;;;;4.60;2.47;;;;;;;1.84;58.63;101282.88;4915651;29;20040;-81
2021/11/15 08:10:57;;;;;;;12.60;3.70;;;;;;;1.76;58.16;101273.16;4912486;29;20079;-83
2021/11/15 08:13:24;;;;;;;5.60;2.25;;;;;;;1.78;58.68;101310.66;4915240;29;20417;-79
2021/11/15 08:15:50;;;;;;;5.65;2.33;;;;;;;1.85;57.99;101289.94;4898774;29;20095;-80
2021/11/15 08:18:16;;;;;;;7.82;2.55;;;;;;;1.91;57.69;101297.19;4917330;29;20082;-81
2021/11/15 08:20:45;;;;;;;7.72;3.25;;;;;;;1.95;58.25;101311.09;4917081;29;20055;-79
2021/11/15 08:23:15;;;;;;;11.25;3.15;;;;;;;2.03;58.33;101303.63;4915669;29;20514;-80
2021/11/15 08:26:22;;;;;;;7.43;2.83;;;;;;;1.85;59.43;101325.00;4915410;29;20075;-81
2021/11/15 08:28:49;;;;;;;3.67;1.90;;;;;;;1.76;58.52;101320.84;4914915;29;20040;-79
2021/11/15 08:31:15;;;;;;;8.07;2.45;;;;;;;1.84;58.70;101307.16;4915115;29;20052;-80
2021/11/15 08:33:42;;;;;;;5.93;2.10;;;;;;;1.81;57.83;101310.25;4915015;29;20044;-82
2021/11/15 08:36:08;;;;;;;13.05;2.60;;;;;;;1.97;57.73;101309.84;4915495;29;20046;-81
2021/11/15 08:38:50;;;;;;;7.38;1.90;;;;;;;1.88;58.07;101305.69;4915405;29;20465;-80
2021/11/15 08:41:21;;;;;;;9.20;1.92;;;;;;;1.77;58.15;101344.91;4914990;29;20063;-80
2021/11/15 08:43:47;;;;;;;6.38;3.08;;;;;;;1.75;58.73;101348.84;4915109;29;20052;-82
2021/11/15 08:46:15;;;;;;;6.65;2.38;;;;;;;1.74;59.30;101325.59;4914966;29;20531;-82
2021/11/15 08:48:44;;;;;;;6.38;2.40;;;;;;;1.86;58.38;101340.97;4914988;29;20111;-81
2021/11/15 08:51:12;;;;;;;4.10;2.00;;;;;;;1.69;59.21;101336.16;4915050;29;20051;-81
2021/11/15 08:53:40;;;;;;;4.32;1.88;;;;;;;1.75;58.38;101344.25;4898070;29;20047;-81
2021/11/15 08:56:07;;;;;;;6.00;1.80;;;;;;;1.67;59.13;101340.94;4914994;29;20040;-82
2021/11/15 08:58:33;;;;;;;3.67;1.88;;;;;;;1.71;58.86;101350.28;4914952;29;20044;-82
2021/11/15 09:00:59;;;;;;;5.47;2.40;;;;;;;1.72;59.04;101351.94;4915099;29;20063;-81
2021/11/15 09:03:26;;;;;;;4.65;2.30;;;;;;;1.62;58.44;101336.16;4915274;29;20043;-82
2021/11/15 09:05:52;;;;;;;4.25;1.80;;;;;;;1.84;57.83;101374.56;4915021;29;20091;-82
2021/11/15 09:08:20;;;;;;;6.10;1.63;;;;;;;1.66;57.87;101377.88;4898467;29;20048;-82
2021/11/15 09:10:47;;;;;;;5.32;1.77;;;;;;;1.61;58.86;101391.09;4915103;29;20043;-81
2021/11/15 09:13:14;;;;;;;3.88;1.83;;;;;;;1.57;58.78;101379.09;4914805;29;20044;-82
2021/11/15 09:15:44;;;;;;;3.42;1.92;;;;;;;1.55;57.69;101391.91;4915342;29;20091;-83
2021/11/15 09:18:10;;;;;;;11.77;2.20;;;;;;;1.71;56.54;101398.81;4915505;29;20044;-83
2021/11/15 09:20:36;;;;;;;4.68;2.25;;;;;;;1.67;57.73;101401.09;4897215;29;20417;-81
2021/11/15 09:23:03;;;;;;;7.30;2.13;;;;;;;1.54;57.23;101380.31;4917392;29;20040;-80
2021/11/15 09:25:30;;;;;;;12.18;2.13;;;;;;;1.54;56.61;101393.78;4902573;29;20044;-80
2021/11/15 09:27:57;;;;;;;13.27;1.40;;;;;;;1.60;55.96;101398.38;4918189;29;20444;-82
2021/11/15 09:30:24;;;;;;;2.92;1.35;;;;;;;1.57;57.38;101406.84;4918378;29;20052;-79
2021/11/15 09:32:50;;;;;;;5.07;2.15;;;;;;;1.65;56.43;101400.44;4918152;29;20039;-79
2021/11/15 09:35:20;;;;;;;3.97;1.77;;;;;;;1.73;56.36;101408.38;4916586;29;20048;-82
2021/11/15 09:37:47;;;;;;;4.22;1.85;;;;;;;1.64;56.77;101401.50;4917718;29;20419;-78
2021/11/15 09:40:15;;;;;;;8.00;1.98;;;;;;;1.60;58.29;101411.03;4917528;29;20060;-84
2021/11/15 09:42:41;;;;;;;6.97;1.80;;;;;;;1.59;59.20;101420.97;4917987;29;20126;-84
2021/11/15 09:45:08;;;;;;;5.03;2.00;;;;;;;1.52;59.58;101430.06;4917957;29;20044;-82
2021/11/15 09:47:38;;;;;;;4.55;1.45;;;;;;;1.54;59.20;101426.13;4918032;29;20044;-82
2021/11/15 09:50:07;;;;;;;4.72;2.25;;;;;;;1.63;59.70;101433.00;4917896;29;20421;-81
2021/11/15 09:52:34;;;;;;;3.60;2.03;;;;;;;1.67;59.02;101413.75;4917012;29;20068;-85
2021/11/15 09:55:03;;;;;;;10.90;2.00;;;;;;;1.70;58.34;101427.66;4917563;29;20044;-84
2021/11/15 09:57:30;;;;;;;3.38;1.83;;;;;;;1.72;59.14;101430.13;4917922;29;20181;-82
2021/11/15 09:59:56;;;;;;;9.20;3.63;;;;;;;1.78;57.43;101435.53;4917844;29;20071;-83
2021/11/15 10:02:23;;;;;;;6.80;2.40;;;;;;;1.51;57.61;101442.72;4917074;29;20052;-83
2021/11/15 10:04:49;;;;;;;10.80;1.88;;;;;;;1.45;57.55;101434.59;4917463;29;20573;-83
2021/11/15 10:07:15;;;;;;;10.10;1.52;;;;;;;1.68;55.81;101445.06;4917941;29;20083;-80
2021/11/15 10:09:42;;;;;;;3.90;1.55;;;;;;;1.76;55.10;101443.03;4916955;29;20465;-83
2021/11/15 10:12:15;;;;;;;3.13;1.40;;;;;;;1.75;55.55;101451.28;4918780;29;20043;-83
2021/11/15 10:15:20;;;;;;;4.15;1.70;;;;;;;1.84;57.06;101450.09;4917847;29;20088;-82
2021/11/15 10:17:48;;;;;;;4.38;2.20;;;;;;;1.82;56.75;101452.16;4843880;29;20128;-82
2021/11/15 10:20:14;;;;;;;7.40;3.55;;;;;;;1.77;57.84;101452.75;4858775;29;20507;-81
2021/11/15 10:22:40;;;;;;;7.43;2.00;;;;;;;1.74;57.25;101447.78;4885120;29;20052;-81
2021/11/15 10:25:09;;;;;;;2.80;1.60;;;;;;;1.74;57.25;101463.94;4916806;29;20070;-83
2021/11/15 10:27:37;;;;;;;7.28;1.73;;;;;;;1.82;57.42;101468.31;4916919;29;20086;-80
2021/11/15 10:30:10;;;;;;;2.80;1.70;;;;;;;1.78;57.69;101476.00;4916802;29;20044;-81
2021/11/15 10:32:43;;;;;;;2.83;1.65;;;;;;;1.62;57.11;101485.28;4915942;29;20040;-80
2021/11/15 10:35:10;;;;;;;5.47;1.70;;;;;;;1.75;57.00;101470.16;4916641;29;20052;-80
2021/11/15 10:37:39;;;;;;;6.80;2.33;;;;;;;1.61;56.81;101486.28;4917028;29;20036;-79
2021/11/15 10:40:06;;;;;;;5.13;1.60;;;;;;;1.56;57.83;101488.78;4915916;29;20528;-80
2021/11/15 10:42:36;;;;;;;3.40;2.05;;;;;;;1.63;56.58;101494.19;4916834;29;20456;-80
2021/11/15 10:45:25;;;;;;;3.28;1.50;;;;;;;1.65;57.59;101482.16;4917083;29;20047;-79
2021/11/15 10:47:50;;;;;;;3.75;1.75;;;;;;;1.64;57.01;101482.38;4915928;29;20043;-78
2021/11/15 10:53:55;;;;;;;5.07;1.65;;;;;;;1.70;56.78;101486.97;4916044;29;20131;-80
2021/11/15 10:56:32;;;;;;;6.03;1.95;;;;;;;1.76;57.16;101488.03;4915337;29;20052;-74
2021/11/15 10:58:59;;;;;;;4.57;1.90;;;;;;;1.73;56.27;101496.53;4916626;29;20040;-82
2021/11/15 11:01:34;;;;;;;1.90;1.50;;;;;;;1.85;55.05;101487.66;4916290;29;20095;-79
2021/11/15 11:04:16;;;;;;;5.75;2.40;;;;;;;1.92;55.20;101503.88;4914512;29;20047;-75
2021/11/15 11:07:04;;;;;;;2.97;1.73;;;;;;;1.91;54.78;101504.88;4911864;29;20048;-76
2021/11/15 11:09:35;;;;;;;6.95;1.58;;;;;;;2.07;55.53;101499.13;4899829;29;20059;-83
2021/11/15 11:12:17;;;;;;;5.68;2.15;;;;;;;2.03;56.15;101507.84;4916687;29;20127;-82
2021/11/15 11:14:45;;;;;;;18.30;2.63;;;;;;;2.07;56.16;101506.41;4916620;29;20048;-81
2021/11/15 11:17:11;;;;;;;12.32;3.03;;;;;;;2.00;56.92;101511.78;4916515;29;20051;-79
2021/11/15 11:20:31;;;;;;;12.38;2.30;;;;;;;2.15;55.78;101510.75;4916567;29;20044;-78
2021/11/15 11:26:16;;;;;;;7.13;1.92;;;;;;;2.32;56.26;101522.88;4915771;29;20047;-79
2021/11/15 11:28:49;;;;;;;13.18;5.35;;;;;;;2.07;57.38;101522.59;4916186;29;20070;-80
2021/11/15 11:31:16;;;;;;;16.70;4.68;;;;;;;2.07;58.23;101507.22;4914774;29;20127;-82
2021/11/15 11:33:44;;;;;;;31.40;12.07;;;;;;;2.15;59.10;101532.34;4915893;29;20044;-81
2021/11/15 11:36:12;;;;;;;37.83;14.32;;;;;;;2.24;60.27;101531.13;4897140;29;20063;-80
2021/11/15 11:38:39;;;;;;;;;;;;;;;2.20;58.87;101540.69;4916139;29;20529;-82
2021/11/15 11:41:05;;;;;;;;;;;;;;;2.04;59.39;101537.31;4916072;29;19923;-85
2021/11/15 11:43:32;;;;;;;22.60;7.23;;;;;;;1.86;60.01;101518.97;4916034;29;19927;-83
2021/11/15 11:45:58;;;;;;;33.72;10.23;;;;;;;2.02;59.56;101549.31;4915404;29;20334;-82
2021/11/15 11:48:26;;;;;;;14.20;3.50;;;;;;;2.04;58.55;101544.56;4914316;29;20462;-83
2021/11/15 11:50:55;;;;;;;8.38;3.10;;;;;;;1.85;57.96;101554.22;4915853;29;20044;-83
2021/11/15 11:53:24;;;;;;;11.73;2.58;;;;;;;1.75;57.91;101553.78;4915730;29;20164;-81
2021/11/15 11:55:52;;;;;;;15.43;2.97;;;;;;;1.59;57.85;101563.88;4915643;29;20044;-83
2021/11/15 11:58:31;;;;;;;11.93;2.60;;;;;;;1.55;57.39;101559.06;4915628;29;20040;-81
2021/11/15 12:01:05;;;;;;;16.00;4.20;;;;;;;1.62;57.94;101559.91;4915467;29;20650;-83
2021/11/15 12:03:33;;;;;;;18.20;6.00;;;;;;;1.73;58.25;101566.63;4915677;29;20048;-79
2021/11/15 12:05:59;;;;;;;61.65;21.65;;;;;;;1.62;57.91;101560.78;4915355;29;20044;-80
2021/11/15 12:08:50;;;;;;;48.10;15.32;;;;;;;1.60;58.80;101570.91;4915584;29;20134;-78
2021/11/15 12:11:30;;;;;;;49.75;15.73;;;;;;;1.63;58.55;101575.91;4915415;29;20075;-84
2021/11/15 12:13:59;;;;;;;19.52;7.55;;;;;;;1.61;58.42;101577.97;4915690;29;20079;-83
2021/11/15 12:16:57;;;;;;;7.22;2.83;;;;;;;1.60;57.89;101587.09;4898465;29;20585;-81
2021/11/15 12:19:31;;;;;;;10.35;3.65;;;;;;;1.59;58.41;101595.34;4915678;29;20186;-86
2021/11/15 12:22:21;;;;;;;19.17;4.55;;;;;;;1.61;58.20;101594.13;4915287;29;20044;-85
2021/11/15 12:25:08;;;;;;;10.73;3.70;;;;;;;1.61;58.33;101602.22;4898275;29;20501;-78
2021/11/15 12:27:46;;;;;;;43.08;5.88;;;;;;;1.50;57.67;101608.19;4915410;29;20119;-84
2021/11/15 12:30:27;;;;;;;11.73;4.93;;;;;;;1.56;57.69;101610.09;4915271;29;20076;-86
2021/11/15 12:33:20;;;;;;;37.33;10.00;;;;;;;1.72;58.31;101610.78;4915325;29;20044;-85
2021/11/15 12:36:09;;;;;;;24.60;8.55;;;;;;;1.61;57.75;101610.31;4915166;29;20048;-84
2021/11/15 12:38:46;;;;;;;39.42;14.60;;;;;;;1.58;57.54;101620.66;4915054;29;20100;-87
2021/11/15 12:41:18;;;;;;;;;;;;;;;1.60;58.26;101615.91;4915124;29;20060;-86
2021/11/15 12:44:07;;;;;;;55.15;17.63;;;;;;;1.57;58.20;101609.03;4914975;29;20003;-85
2021/11/15 12:46:53;;;;;;;61.92;18.65;;;;;;;1.59;58.21;101615.09;4913606;29;20048;-86
2021/11/15 12:49:22;;;;;;;27.88;10.75;;;;;;;1.59;58.16;101622.31;4915234;29;20044;-84
2021/11/15 12:52:09;;;;;;;28.17;10.20;;;;;;;1.59;58.24;101625.00;4912304;29;20040;-85
2021/11/15 12:55:07;;;;;;;10.15;4.07;;;;;;;1.63;58.52;101626.31;4901602;29;20051;-87
2021/11/15 12:57:37;;;;;;;19.50;5.13;;;;;;;1.55;58.20;101607.56;4918344;29;20425;-84
2021/11/15 13:00:24;;;;;;;10.85;3.67;;;;;;;1.53;58.56;101623.13;4918826;29;20047;-84
2021/11/15 13:03:08;;;;;;;10.25;3.72;;;;;;;1.54;58.83;101624.78;4916370;29;20040;-84
2021/11/15 13:05:41;;;;;;;26.60;10.00;;;;;;;1.40;58.62;101634.63;4918353;29;20076;-85
2021/11/15 13:08:12;;;;;;;54.00;17.73;;;;;;;1.35;59.61;101629.81;4919470;29;20044;-86
2021/11/15 13:10:41;;;;;;;18.05;4.78;;;;;;;1.41;58.90;101641.69;4900034;29;20084;-79
2021/11/15 13:13:13;;;;;;;13.48;3.00;;;;;;;1.29;58.14;101632.47;4899652;29;20059;-81
2021/11/15 13:15:40;;;;;;;26.10;6.10;;;;;;;1.40;59.16;101645.41;4914035;29;20037;-82
2021/11/15 13:18:07;;;;;;;38.80;11.40;;;;;;;1.35;59.37;101635.22;4899453;29;20051;-81
2021/11/15 13:20:33;;;;;;;12.77;3.72;;;;;;;1.43;57.76;101644.19;4899273;29;20047;-78
2021/11/15 13:23:00;;;;;;;16.95;4.78;;;;;;;1.36;57.05;101650.38;4899564;29;20041;-89
2021/11/15 13:25:27;;;;;;;;;;;;;;;1.35;57.87;101639.75;4919244;29;20047;-77
2021/11/15 13:27:54;;;;;;;;;;;;;;;1.34;58.29;101638.09;4920119;29;19923;-87
2021/11/15 13:30:22;;;;;;;5.13;2.15;;;;;;;1.17;57.50;101642.94;4920648;29;19927;-88
2021/11/15 13:32:54;;;;;;;13.85;2.90;;;;;;;1.20;59.31;101647.13;4922271;29;20067;-89
2021/11/15 13:35:22;;;;;;;9.98;2.20;;;;;;;1.21;58.33;101648.78;4919669;29;20184;-84
2021/11/15 13:38:02;;;;;;;12.25;2.30;;;;;;;1.24;58.24;101665.38;4918702;29;20040;-87
2021/11/15 13:40:31;;;;;;;18.42;3.72;;;;;;;1.21;58.52;101651.47;4917359;29;20060;-75
2021/11/15 13:42:57;;;;;;;10.13;3.13;;;;;;;1.06;57.79;101647.00;4918316;29;20527;-88
2021/11/15 13:45:23;;;;;;;16.85;4.22;;;;;;;1.18;58.43;101672.38;4917474;29;20067;-80
2021/11/15 13:47:50;;;;;;;20.30;4.80;;;;;;;1.29;58.44;101662.97;4917128;29;20032;-78
2021/11/15 13:50:16;;;;;;;15.40;3.95;;;;;;;1.22;58.05;101672.00;4917783;29;20109;-89
2021/11/15 13:52:42;;;;;;;9.20;3.00;;;;;;;1.28;58.78;101673.91;4918267;29;20048;-89
2021/11/15 13:55:09;;;;;;;13.38;4.00;;;;;;;1.37;58.31;101676.28;4916079;29;20073;-85
2021/11/15 13:57:35;;;;;;;11.00;3.63;;;;;;;1.48;58.13;101688.41;4918656;29;20084;-75
2021/11/15 14:00:05;;;;;;;12.05;4.90;;;;;;;1.45;57.79;101704.13;4918238;29;20513;-78
2021/11/15 14:02:32;;;;;;;9.70;3.88;;;;;;;1.37;56.84;101697.00;4918154;29;20048;-80
2021/11/15 14:04:59;;;;;;;15.10;2.92;;;;;;;1.39;57.28;101703.88;4918027;29;20066;-76
2021/11/15 14:07:24;;;;;;;6.47;2.15;;;;;;;1.47;56.98;101692.13;4917636;29;20482;-77
2021/11/15 14:09:51;;;;;;;28.42;3.30;;;;;;;1.62;56.67;101695.59;4918364;29;20048;-71
2021/11/15 14:12:18;;;;;;;14.63;3.17;;;;;;;1.62;55.43;101689.31;4918262;29;20509;-89
2021/11/15 14:14:45;;;;;;;12.23;3.30;;;;;;;1.80;55.96;101696.94;4917568;29;20589;-88
2021/11/15 14:17:11;;;;;;;14.43;3.17;;;;;;;1.82;56.21;101694.88;4918400;29;20048;-76
2021/11/15 14:19:38;;;;;;;;;;;;;;;1.75;55.51;101689.44;4918362;29;20040;-84
2021/11/15 14:22:08;;;;;;;11.32;3.13;;;;;;;1.82;55.81;101686.78;4918530;29;19934;-87
2021/11/15 14:24:38;;;;;;;9.73;2.85;;;;;;;1.72;55.32;101689.00;4919035;29;20075;-88
2021/11/15 14:27:05;;;;;;;21.65;3.90;;;;;;;1.81;56.25;101702.13;4912250;29;20046;-88
2021/11/15 14:29:32;;;;;;;13.48;3.17;;;;;;;1.88;56.18;101691.38;4919307;29;20131;-80
2021/11/15 14:31:58;;;;;;;22.25;4.07;;;;;;;1.82;55.96;101706.53;4917832;29;20147;-84
2021/11/15 14:34:25;;;;;;;13.07;2.90;;;;;;;2.02;55.45;101709.34;4921902;29;20044;-80
2021/11/15 14:36:50;;;;;;;8.50;3.10;;;;;;;2.05;55.23;101705.41;4902791;29;20538;-78
2021/11/15 14:39:17;;;;;;;15.82;3.55;;;;;;;2.20;55.13;101708.00;4917974;29;20067;-86
2021/11/15 14:41:43;;;;;;;18.10;2.97;;;;;;;2.28;54.39;101699.72;4917299;29;20155;-82
2021/11/15 14:44:11;;;;;;;13.52;3.30;;;;;;;2.51;54.23;101713.75;4917854;29;20123;-88
2021/11/15 14:46:37;;;;;;;13.75;2.75;;;;;;;2.49;54.08;101705.03;4918103;29;20064;-88
2021/11/15 14:49:05;;;;;;;15.90;3.45;;;;;;;2.63;53.76;101724.00;4918306;29;20446;-87
2021/11/15 14:51:31;;;;;;;10.15;4.18;;;;;;;2.61;54.83;101716.09;4917039;29;20076;-88
2021/11/15 14:53:58;;;;;;;24.13;4.18;;;;;;;2.31;54.15;101719.06;4917416;29;20044;-89
2021/11/15 14:56:25;;;;;;;11.32;3.42;;;;;;;2.22;55.35;101716.72;4917572;29;20044;-88
2021/11/15 14:58:51;;;;;;;11.00;3.30;;;;;;;2.04;55.68;101709.97;4916588;29;20070;-74
2021/11/15 15:01:18;;;;;;;7.97;3.13;;;;;;;2.23;55.83;101718.41;4916319;29;20406;-83
2021/11/15 15:03:45;;;;;;;11.38;3.03;;;;;;;2.15;55.30;101707.75;4917640;29;20118;-85
2021/11/15 15:06:11;;;;;;;8.57;3.45;;;;;;;2.22;55.34;101711.31;4916794;29;20564;-76
2021/11/15 15:08:38;;;;;;;17.17;3.60;;;;;;;2.20;55.05;101714.22;4920381;29;20032;-78
2021/11/15 15:11:05;;;;;;;8.65;3.25;;;;;;;2.11;55.42;101713.53;4916998;29;20549;-89
2021/11/15 15:13:34;;;;;;;51.13;5.93;;;;;;;2.31;55.38;101710.97;4916985;29;20509;-84
2021/11/15 15:16:00;;;;;;;12.43;3.97;;;;;;;2.50;54.79;101711.28;4916535;29;20080;-76
2021/11/15 15:18:32;;;;;;;13.57;3.67;;;;;;;2.48;54.06;101706.06;4918559;29;20040;-89
2021/11/15 15:21:00;;;;;;;11.32;3.75;;;;;;;2.29;53.03;101696.84;4919450;29;20519;-85
2021/11/15 15:23:27;;;;;;;8.02;3.35;;;;;;;2.17;52.69;101687.63;4916881;29;20502;-78
2021/11/15 15:25:55;;;;;;;10.98;3.75;;;;;;;2.45;52.87;101706.47;4916299;29;20086;-82
2021/11/15 15:28:21;;;;;;;14.73;4.70;;;;;;;2.42;52.72;101703.31;4915682;29;20055;-79
2021/11/15 15:30:48;;;;;;;13.52;4.90;;;;;;;2.59;51.93;101708.19;4916327;29;20138;-88
2021/11/15 15:33:14;;;;;;;21.15;4.82;;;;;;;2.46;51.20;101702.75;4916193;29;20119;-81
2021/11/15 15:35:42;;;;;;;11.27;4.35;;;;;;;2.33;51.34;101692.72;4916450;29;20059;-82
2021/11/15 15:38:10;;;;;;;11.18;4.70;;;;;;;2.39;50.44;101699.19;4916587;29;20036;-89
2021/11/15 15:40:46;;;;;;;12.60;4.25;;;;;;;2.48;51.54;101697.13;4916575;29;20074;-74